sensor_id;sensor_type;location;lat;lon;timestamp;P1;durP1;ratioP1;P2;durP2;ratioP2
2476;SDS011;1249;51.270;6.756;2023-04-19T00:01:23;11.40;;;10.20;;
2476;SDS011;1249;51.270;6.756;2023-04-19T00:03:49;11.87;;;10.77;;
2476;SDS011;1249;51.270;6.756;2023-04-19T00:06:14;12.40;;;11.10;;
2476;SDS011;1249;51.270;6.756;2023-04-19T00:08:40;12.50;;;11.03;;
2476;SDS011;1249;51.270;6.756;2023-04-19T00:11:07;12.13;;;11.00;;
2476;SDS011;1249;51.270;6.756;2023-04-19T00:13:36;13.70;;;11.07;;
2476;SDS011;1249;51.270;6.756;2023-04-19T00:16:01;14.23;;;10.90;;
2476;SDS011;1249;51.270;6.756;2023-04-19T00:18:27;13.57;;;11.63;;
2476;SDS011;1249;51.270;6.756;2023-04-19T00:20:53;13.40;;;9.97;;
2476;SDS011;1249;51.270;6.756;2023-04-19T00:23:18;11.87;;;10.67;;
2476;SDS011;1249;51.270;6.756;2023-04-19T00:25:44;12.00;;;10.90;;
2476;SDS011;1249;51.270;6.756;2023-04-19T00:28:10;11.30;;;10.07;;
2476;SDS011;1249;51.270;6.756;2023-04-19T00:30:36;12.43;;;11.00;;
2476;SDS011;1249;51.270;6.756;2023-04-19T00:33:01;12.50;;;11.30;;
2476;SDS011;1249;51.270;6.756;2023-04-19T00:35:30;14.10;;;11.27;;
2476;SDS011;1249;51.270;6.756;2023-04-19T00:37:55;12.00;;;10.70;;
2476;SDS011;1249;51.270;6.756;2023-04-19T00:40:21;11.47;;;9.97;;
2476;SDS011;1249;51.270;6.756;2023-04-19T00:42:46;12.43;;;10.80;;
2476;SDS011;1249;51.270;6.756;2023-04-19T00:45:12;11.37;;;10.17;;
2476;SDS011;1249;51.270;6.756;2023-04-19T00:47:38;11.37;;;10.23;;
2476;SDS011;1249;51.270;6.756;2023-04-19T00:50:04;14.83;;;10.90;;
2476;SDS011;1249;51.270;6.756;2023-04-19T00:52:31;12.30;;;10.53;;
2476;SDS011;1249;51.270;6.756;2023-04-19T00:54:57;13.43;;;11.77;;
2476;SDS011;1249;51.270;6.756;2023-04-19T00:57:23;13.80;;;10.53;;
2476;SDS011;1249;51.270;6.756;2023-04-19T00:59:49;12.30;;;11.10;;
2476;SDS011;1249;51.270;6.756;2023-04-19T01:02:15;12.60;;;11.17;;
2476;SDS011;1249;51.270;6.756;2023-04-19T01:04:41;13.47;;;11.77;;
2476;SDS011;1249;51.270;6.756;2023-04-19T01:07:07;11.90;;;10.17;;
2476;SDS011;1249;51.270;6.756;2023-04-19T01:09:33;12.53;;;10.83;;
2476;SDS011;1249;51.270;6.756;2023-04-19T01:12:00;14.97;;;12.13;;
2476;SDS011;1249;51.270;6.756;2023-04-19T01:14:27;12.40;;;11.10;;
2476;SDS011;1249;51.270;6.756;2023-04-19T01:16:52;12.93;;;11.63;;
2476;SDS011;1249;51.270;6.756;2023-04-19T01:19:18;14.10;;;12.60;;
2476;SDS011;1249;51.270;6.756;2023-04-19T01:21:45;14.87;;;12.07;;
2476;SDS011;1249;51.270;6.756;2023-04-19T01:24:10;15.43;;;12.20;;
2476;SDS011;1249;51.270;6.756;2023-04-19T01:26:36;15.17;;;11.73;;
2476;SDS011;1249;51.270;6.756;2023-04-19T01:29:02;13.00;;;11.70;;
2476;SDS011;1249;51.270;6.756;2023-04-19T01:31:27;15.30;;;10.73;;
2476;SDS011;1249;51.270;6.756;2023-04-19T01:33:53;14.90;;;13.30;;
2476;SDS011;1249;51.270;6.756;2023-04-19T01:36:18;12.97;;;11.03;;
2476;SDS011;1249;51.270;6.756;2023-04-19T01:38:44;13.60;;;11.57;;
2476;SDS011;1249;51.270;6.756;2023-04-19T01:41:11;14.17;;;12.60;;
2476;SDS011;1249;51.270;6.756;2023-04-19T01:43:37;12.90;;;11.50;;
2476;SDS011;1249;51.270;6.756;2023-04-19T01:46:03;13.53;;;11.70;;
2476;SDS011;1249;51.270;6.756;2023-04-19T01:48:28;13.27;;;11.37;;
2476;SDS011;1249;51.270;6.756;2023-04-19T01:50:54;14.70;;;12.40;;
2476;SDS011;1249;51.270;6.756;2023-04-19T01:53:19;13.17;;;11.70;;
2476;SDS011;1249;51.270;6.756;2023-04-19T01:55:45;12.53;;;11.27;;
2476;SDS011;1249;51.270;6.756;2023-04-19T01:58:10;12.50;;;11.20;;
2476;SDS011;1249;51.270;6.756;2023-04-19T02:00:36;12.10;;;10.90;;
2476;SDS011;1249;51.270;6.756;2023-04-19T02:03:01;14.10;;;12.07;;
2476;SDS011;1249;51.270;6.756;2023-04-19T02:05:27;12.90;;;11.50;;
2476;SDS011;1249;51.270;6.756;2023-04-19T02:07:53;13.40;;;11.60;;
2476;SDS011;1249;51.270;6.756;2023-04-19T02:10:18;13.43;;;12.03;;
2476;SDS011;1249;51.270;6.756;2023-04-19T02:12:44;13.30;;;12.00;;
2476;SDS011;1249;51.270;6.756;2023-04-19T02:15:09;17.03;;;11.40;;
2476;SDS011;1249;51.270;6.756;2023-04-19T02:17:35;12.77;;;11.47;;
2476;SDS011;1249;51.270;6.756;2023-04-19T02:20:01;14.40;;;11.60;;
2476;SDS011;1249;51.270;6.756;2023-04-19T02:22:28;14.97;;;12.23;;
2476;SDS011;1249;51.270;6.756;2023-04-19T02:24:53;13.00;;;11.53;;
2476;SDS011;1249;51.270;6.756;2023-04-19T02:27:19;12.27;;;10.23;;
2476;SDS011;1249;51.270;6.756;2023-04-19T02:29:44;12.47;;;11.17;;
2476;SDS011;1249;51.270;6.756;2023-04-19T02:32:10;12.57;;;11.33;;
2476;SDS011;1249;51.270;6.756;2023-04-19T02:34:36;13.80;;;12.47;;
2476;SDS011;1249;51.270;6.756;2023-04-19T02:37:02;14.43;;;11.93;;
2476;SDS011;1249;51.270;6.756;2023-04-19T02:39:28;12.63;;;11.33;;
2476;SDS011;1249;51.270;6.756;2023-04-19T02:41:54;12.07;;;10.73;;
2476;SDS011;1249;51.270;6.756;2023-04-19T02:44:20;13.20;;;11.90;;
2476;SDS011;1249;51.270;6.756;2023-04-19T02:46:49;15.47;;;12.67;;
2476;SDS011;1249;51.270;6.756;2023-04-19T02:49:15;12.43;;;11.13;;
2476;SDS011;1249;51.270;6.756;2023-04-19T02:51:41;13.47;;;11.77;;
2476;SDS011;1249;51.270;6.756;2023-04-19T02:54:06;13.40;;;11.10;;
2476;SDS011;1249;51.270;6.756;2023-04-19T02:56:32;15.67;;;10.97;;
2476;SDS011;1249;51.270;6.756;2023-04-19T02:59:00;14.00;;;11.83;;
2476;SDS011;1249;51.270;6.756;2023-04-19T03:01:27;17.10;;;11.50;;
2476;SDS011;1249;51.270;6.756;2023-04-19T03:03:52;13.43;;;12.23;;
2476;SDS011;1249;51.270;6.756;2023-04-19T03:06:18;17.90;;;11.10;;
2476;SDS011;1249;51.270;6.756;2023-04-19T03:08:43;13.03;;;11.73;;
2476;SDS011;1249;51.270;6.756;2023-04-19T03:11:09;12.20;;;10.30;;
2476;SDS011;1249;51.270;6.756;2023-04-19T03:13:35;13.80;;;10.40;;
2476;SDS011;1249;51.270;6.756;2023-04-19T03:16:01;12.60;;;11.43;;
2476;SDS011;1249;51.270;6.756;2023-04-19T03:18:27;16.57;;;11.40;;
2476;SDS011;1249;51.270;6.756;2023-04-19T03:20:53;13.23;;;11.83;;
2476;SDS011;1249;51.270;6.756;2023-04-19T03:23:19;13.50;;;11.20;;
2476;SDS011;1249;51.270;6.756;2023-04-19T03:25:44;15.07;;;12.40;;
2476;SDS011;1249;51.270;6.756;2023-04-19T03:28:10;12.23;;;10.90;;
2476;SDS011;1249;51.270;6.756;2023-04-19T03:30:35;13.30;;;11.17;;
2476;SDS011;1249;51.270;6.756;2023-04-19T03:33:01;11.60;;;10.50;;
2476;SDS011;1249;51.270;6.756;2023-04-19T03:35:26;12.17;;;11.00;;
2476;SDS011;1249;51.270;6.756;2023-04-19T03:37:54;11.77;;;10.57;;
2476;SDS011;1249;51.270;6.756;2023-04-19T03:40:20;15.87;;;14.27;;
2476;SDS011;1249;51.270;6.756;2023-04-19T03:42:45;12.93;;;11.03;;
2476;SDS011;1249;51.270;6.756;2023-04-19T03:45:11;14.17;;;10.47;;
2476;SDS011;1249;51.270;6.756;2023-04-19T03:47:37;10.43;;;9.43;;
2476;SDS011;1249;51.270;6.756;2023-04-19T03:50:02;12.30;;;10.10;;
2476;SDS011;1249;51.270;6.756;2023-04-19T03:52:28;10.10;;;9.10;;
2476;SDS011;1249;51.270;6.756;2023-04-19T03:54:53;11.50;;;9.10;;
2476;SDS011;1249;51.270;6.756;2023-04-19T03:57:19;11.23;;;10.00;;
2476;SDS011;1249;51.270;6.756;2023-04-19T03:59:46;10.83;;;8.30;;
2476;SDS011;1249;51.270;6.756;2023-04-19T04:02:11;8.60;;;7.80;;
2476;SDS011;1249;51.270;6.756;2023-04-19T04:04:37;8.87;;;7.97;;
2476;SDS011;1249;51.270;6.756;2023-04-19T04:07:03;11.87;;;8.43;;
2476;SDS011;1249;51.270;6.756;2023-04-19T04:09:28;9.07;;;8.27;;
2476;SDS011;1249;51.270;6.756;2023-04-19T04:11:54;9.97;;;7.27;;
2476;SDS011;1249;51.270;6.756;2023-04-19T04:14:19;8.13;;;7.33;;
2476;SDS011;1249;51.270;6.756;2023-04-19T04:16:45;8.67;;;7.73;;
2476;SDS011;1249;51.270;6.756;2023-04-19T04:19:10;9.10;;;8.13;;
2476;SDS011;1249;51.270;6.756;2023-04-19T04:21:36;7.60;;;6.90;;
2476;SDS011;1249;51.270;6.756;2023-04-19T04:24:01;9.50;;;6.80;;
2476;SDS011;1249;51.270;6.756;2023-04-19T04:26:27;9.93;;;6.33;;
2476;SDS011;1249;51.270;6.756;2023-04-19T04:28:57;8.30;;;6.47;;
2476;SDS011;1249;51.270;6.756;2023-04-19T04:31:25;7.00;;;6.30;;
2476;SDS011;1249;51.270;6.756;2023-04-19T04:33:51;6.90;;;5.90;;
2476;SDS011;1249;51.270;6.756;2023-04-19T04:36:19;7.10;;;6.37;;
2476;SDS011;1249;51.270;6.756;2023-04-19T04:38:45;6.37;;;5.80;;
2476;SDS011;1249;51.270;6.756;2023-04-19T04:41:11;7.10;;;6.23;;
2476;SDS011;1249;51.270;6.756;2023-04-19T04:43:37;5.57;;;5.07;;
2476;SDS011;1249;51.270;6.756;2023-04-19T04:46:03;7.47;;;5.37;;
2476;SDS011;1249;51.270;6.756;2023-04-19T04:48:29;6.40;;;5.77;;
2476;SDS011;1249;51.270;6.756;2023-04-19T04:50:55;5.67;;;5.17;;
2476;SDS011;1249;51.270;6.756;2023-04-19T04:53:21;6.67;;;5.40;;
2476;SDS011;1249;51.270;6.756;2023-04-19T04:55:47;5.43;;;4.80;;
2476;SDS011;1249;51.270;6.756;2023-04-19T04:58:13;5.90;;;5.40;;
2476;SDS011;1249;51.270;6.756;2023-04-19T05:00:38;6.70;;;6.07;;
2476;SDS011;1249;51.270;6.756;2023-04-19T05:03:04;7.33;;;5.73;;
2476;SDS011;1249;51.270;6.756;2023-04-19T05:05:30;6.90;;;6.00;;
2476;SDS011;1249;51.270;6.756;2023-04-19T05:07:55;6.53;;;5.90;;
2476;SDS011;1249;51.270;6.756;2023-04-19T05:10:21;9.83;;;5.50;;
2476;SDS011;1249;51.270;6.756;2023-04-19T05:12:47;8.07;;;5.60;;
2476;SDS011;1249;51.270;6.756;2023-04-19T05:15:12;5.37;;;4.87;;
2476;SDS011;1249;51.270;6.756;2023-04-19T05:17:38;5.47;;;4.93;;
2476;SDS011;1249;51.270;6.756;2023-04-19T05:20:04;5.23;;;4.73;;
2476;SDS011;1249;51.270;6.756;2023-04-19T05:22:30;6.10;;;5.50;;
2476;SDS011;1249;51.270;6.756;2023-04-19T05:24:56;6.57;;;4.60;;
2476;SDS011;1249;51.270;6.756;2023-04-19T05:27:21;8.80;;;4.37;;
2476;SDS011;1249;51.270;6.756;2023-04-19T05:29:47;5.37;;;4.87;;
2476;SDS011;1249;51.270;6.756;2023-04-19T05:32:12;5.20;;;4.70;;
2476;SDS011;1249;51.270;6.756;2023-04-19T05:34:38;5.77;;;4.90;;
2476;SDS011;1249;51.270;6.756;2023-04-19T05:37:04;6.77;;;5.53;;
2476;SDS011;1249;51.270;6.756;2023-04-19T05:39:29;6.00;;;4.60;;
2476;SDS011;1249;51.270;6.756;2023-04-19T05:41:55;7.40;;;6.70;;
2476;SDS011;1249;51.270;6.756;2023-04-19T05:44:20;6.90;;;6.20;;
2476;SDS011;1249;51.270;6.756;2023-04-19T05:46:50;5.67;;;5.13;;
2476;SDS011;1249;51.270;6.756;2023-04-19T05:49:15;5.60;;;5.10;;
2476;SDS011;1249;51.270;6.756;2023-04-19T05:51:41;7.70;;;5.80;;
2476;SDS011;1249;51.270;6.756;2023-04-19T05:54:06;6.37;;;5.10;;
2476;SDS011;1249;51.270;6.756;2023-04-19T05:56:36;6.40;;;5.30;;
2476;SDS011;1249;51.270;6.756;2023-04-19T05:59:02;7.50;;;6.00;;
2476;SDS011;1249;51.270;6.756;2023-04-19T06:01:27;6.70;;;5.70;;
2476;SDS011;1249;51.270;6.756;2023-04-19T06:03:53;5.33;;;4.83;;
2476;SDS011;1249;51.270;6.756;2023-04-19T06:06:22;5.10;;;4.53;;
2476;SDS011;1249;51.270;6.756;2023-04-19T06:08:48;5.17;;;4.77;;
2476;SDS011;1249;51.270;6.756;2023-04-19T06:11:18;5.53;;;5.10;;
2476;SDS011;1249;51.270;6.756;2023-04-19T06:13:44;6.60;;;4.93;;
2476;SDS011;1249;51.270;6.756;2023-04-19T06:16:10;6.23;;;5.63;;
2476;SDS011;1249;51.270;6.756;2023-04-19T06:18:35;5.53;;;5.03;;
2476;SDS011;1249;51.270;6.756;2023-04-19T06:21:01;4.63;;;4.23;;
2476;SDS011;1249;51.270;6.756;2023-04-19T06:23:26;5.00;;;4.50;;
2476;SDS011;1249;51.270;6.756;2023-04-19T06:25:52;8.10;;;5.10;;
2476;SDS011;1249;51.270;6.756;2023-04-19T06:28:18;9.83;;;5.17;;
2476;SDS011;1249;51.270;6.756;2023-04-19T06:30:44;6.00;;;5.40;;
2476;SDS011;1249;51.270;6.756;2023-04-19T06:33:09;5.57;;;4.67;;
2476;SDS011;1249;51.270;6.756;2023-04-19T06:35:35;7.40;;;5.43;;
2476;SDS011;1249;51.270;6.756;2023-04-19T06:38:01;6.73;;;5.60;;
2476;SDS011;1249;51.270;6.756;2023-04-19T06:40:26;6.27;;;5.10;;
2476;SDS011;1249;51.270;6.756;2023-04-19T06:42:55;16.20;;;5.47;;
2476;SDS011;1249;51.270;6.756;2023-04-19T06:45:21;7.00;;;5.70;;
2476;SDS011;1249;51.270;6.756;2023-04-19T06:47:46;5.90;;;5.10;;
2476;SDS011;1249;51.270;6.756;2023-04-19T06:50:12;9.40;;;5.47;;
2476;SDS011;1249;51.270;6.756;2023-04-19T06:52:37;8.23;;;6.53;;
2476;SDS011;1249;51.270;6.756;2023-04-19T06:55:04;8.90;;;5.97;;
2476;SDS011;1249;51.270;6.756;2023-04-19T06:57:30;6.60;;;4.93;;
2476;SDS011;1249;51.270;6.756;2023-04-19T06:59:56;6.30;;;5.53;;
2476;SDS011;1249;51.270;6.756;2023-04-19T07:02:22;9.23;;;6.53;;
2476;SDS011;1249;51.270;6.756;2023-04-19T07:04:48;6.40;;;5.83;;
2476;SDS011;1249;51.270;6.756;2023-04-19T07:07:13;6.20;;;5.47;;
2476;SDS011;1249;51.270;6.756;2023-04-19T07:09:39;6.57;;;5.90;;
2476;SDS011;1249;51.270;6.756;2023-04-19T07:12:05;8.30;;;5.63;;
2476;SDS011;1249;51.270;6.756;2023-04-19T07:14:31;5.60;;;5.00;;
2476;SDS011;1249;51.270;6.756;2023-04-19T07:16:56;6.50;;;5.80;;
2476;SDS011;1249;51.270;6.756;2023-04-19T07:19:22;7.67;;;5.90;;
2476;SDS011;1249;51.270;6.756;2023-04-19T07:21:47;7.40;;;6.13;;
2476;SDS011;1249;51.270;6.756;2023-04-19T07:24:13;5.80;;;5.30;;
2476;SDS011;1249;51.270;6.756;2023-04-19T07:26:40;7.70;;;5.70;;
2476;SDS011;1249;51.270;6.756;2023-04-19T07:29:06;6.33;;;5.50;;
2476;SDS011;1249;51.270;6.756;2023-04-19T07:31:31;8.17;;;5.70;;
2476;SDS011;1249;51.270;6.756;2023-04-19T07:33:57;5.40;;;4.90;;
2476;SDS011;1249;51.270;6.756;2023-04-19T07:36:23;9.90;;;6.40;;
2476;SDS011;1249;51.270;6.756;2023-04-19T07:38:49;5.67;;;5.07;;
2476;SDS011;1249;51.270;6.756;2023-04-19T07:41:15;12.77;;;5.63;;
2476;SDS011;1249;51.270;6.756;2023-04-19T07:43:41;4.93;;;4.53;;
2476;SDS011;1249;51.270;6.756;2023-04-19T07:46:10;5.13;;;4.73;;
2476;SDS011;1249;51.270;6.756;2023-04-19T07:48:37;6.60;;;4.80;;
2476;SDS011;1249;51.270;6.756;2023-04-19T07:51:13;7.53;;;5.80;;
2476;SDS011;1249;51.270;6.756;2023-04-19T07:53:40;5.80;;;4.67;;
2476;SDS011;1249;51.270;6.756;2023-04-19T07:56:07;5.87;;;4.87;;
2476;SDS011;1249;51.270;6.756;2023-04-19T07:58:34;6.23;;;5.63;;
2476;SDS011;1249;51.270;6.756;2023-04-19T08:01:00;5.97;;;5.47;;
2476;SDS011;1249;51.270;6.756;2023-04-19T08:03:26;7.17;;;5.50;;
2476;SDS011;1249;51.270;6.756;2023-04-19T08:05:52;5.77;;;4.90;;
2476;SDS011;1249;51.270;6.756;2023-04-19T08:08:17;4.80;;;4.30;;
2476;SDS011;1249;51.270;6.756;2023-04-19T08:10:43;5.30;;;4.43;;
2476;SDS011;1249;51.270;6.756;2023-04-19T08:13:09;6.77;;;4.90;;
2476;SDS011;1249;51.270;6.756;2023-04-19T08:15:35;6.77;;;4.57;;
2476;SDS011;1249;51.270;6.756;2023-04-19T08:18:00;5.40;;;4.90;;
2476;SDS011;1249;51.270;6.756;2023-04-19T08:20:28;7.07;;;4.80;;
2476;SDS011;1249;51.270;6.756;2023-04-19T08:22:54;7.60;;;5.17;;
2476;SDS011;1249;51.270;6.756;2023-04-19T08:25:20;7.00;;;5.33;;
2476;SDS011;1249;51.270;6.756;2023-04-19T08:27:50;7.03;;;4.07;;
2476;SDS011;1249;51.270;6.756;2023-04-19T08:30:16;7.47;;;5.20;;
2476;SDS011;1249;51.270;6.756;2023-04-19T08:32:41;13.43;;;5.33;;
2476;SDS011;1249;51.270;6.756;2023-04-19T08:35:07;5.50;;;4.90;;
2476;SDS011;1249;51.270;6.756;2023-04-19T08:37:33;11.97;;;5.20;;
2476;SDS011;1249;51.270;6.756;2023-04-19T08:39:59;5.13;;;4.60;;
2476;SDS011;1249;51.270;6.756;2023-04-19T08:42:25;6.17;;;4.27;;
2476;SDS011;1249;51.270;6.756;2023-04-19T08:44:51;5.20;;;4.53;;
2476;SDS011;1249;51.270;6.756;2023-04-19T08:47:18;5.77;;;4.40;;
2476;SDS011;1249;51.270;6.756;2023-04-19T08:49:45;4.90;;;4.50;;
2476;SDS011;1249;51.270;6.756;2023-04-19T08:52:12;7.40;;;4.50;;
2476;SDS011;1249;51.270;6.756;2023-04-19T08:54:39;6.67;;;4.63;;
2476;SDS011;1249;51.270;6.756;2023-04-19T08:57:06;5.00;;;4.20;;
2476;SDS011;1249;51.270;6.756;2023-04-19T08:59:33;14.57;;;3.60;;
2476;SDS011;1249;51.270;6.756;2023-04-19T09:02:00;9.20;;;3.67;;
2476;SDS011;1249;51.270;6.756;2023-04-19T09:04:26;6.33;;;3.37;;
2476;SDS011;1249;51.270;6.756;2023-04-19T09:06:52;3.67;;;3.37;;
2476;SDS011;1249;51.270;6.756;2023-04-19T09:09:20;6.03;;;3.63;;
2476;SDS011;1249;51.270;6.756;2023-04-19T09:11:45;5.77;;;3.00;;
2476;SDS011;1249;51.270;6.756;2023-04-19T09:14:12;4.77;;;3.63;;
2476;SDS011;1249;51.270;6.756;2023-04-19T09:16:40;3.70;;;3.40;;
2476;SDS011;1249;51.270;6.756;2023-04-19T09:19:06;5.07;;;3.50;;
2476;SDS011;1249;51.270;6.756;2023-04-19T09:21:40;6.50;;;3.20;;
2476;SDS011;1249;51.270;6.756;2023-04-19T09:24:06;7.20;;;3.30;;
2476;SDS011;1249;51.270;6.756;2023-04-19T09:26:32;4.80;;;3.83;;
2476;SDS011;1249;51.270;6.756;2023-04-19T09:29:02;6.20;;;4.03;;
2476;SDS011;1249;51.270;6.756;2023-04-19T09:31:32;5.83;;;3.00;;
2476;SDS011;1249;51.270;6.756;2023-04-19T09:36:40;7.33;;;4.20;;
2476;SDS011;1249;51.270;6.756;2023-04-19T09:39:06;4.60;;;3.60;;
2476;SDS011;1249;51.270;6.756;2023-04-19T09:41:32;4.93;;;4.50;;
2476;SDS011;1249;51.270;6.756;2023-04-19T09:44:10;3.43;;;3.13;;
2476;SDS011;1249;51.270;6.756;2023-04-19T09:46:39;5.00;;;3.77;;
2476;SDS011;1249;51.270;6.756;2023-04-19T09:51:39;3.43;;;3.23;;
2476;SDS011;1249;51.270;6.756;2023-04-19T09:54:05;3.70;;;3.37;;
2476;SDS011;1249;51.270;6.756;2023-04-19T09:56:32;7.97;;;3.50;;
2476;SDS011;1249;51.270;6.756;2023-04-19T09:58:59;4.80;;;2.83;;
2476;SDS011;1249;51.270;6.756;2023-04-19T10:01:26;4.00;;;3.60;;
2476;SDS011;1249;51.270;6.756;2023-04-19T10:03:53;8.33;;;3.33;;
2476;SDS011;1249;51.270;6.756;2023-04-19T10:06:20;3.50;;;3.07;;
2476;SDS011;1249;51.270;6.756;2023-04-19T10:08:46;3.30;;;2.70;;
2476;SDS011;1249;51.270;6.756;2023-04-19T10:11:14;4.53;;;2.70;;
2476;SDS011;1249;51.270;6.756;2023-04-19T10:13:40;4.10;;;3.27;;
2476;SDS011;1249;51.270;6.756;2023-04-19T10:16:07;2.73;;;2.00;;
2476;SDS011;1249;51.270;6.756;2023-04-19T10:18:32;2.93;;;2.73;;
2476;SDS011;1249;51.270;6.756;2023-04-19T10:20:59;3.17;;;2.47;;
2476;SDS011;1249;51.270;6.756;2023-04-19T10:23:30;2.43;;;2.23;;
2476;SDS011;1249;51.270;6.756;2023-04-19T10:25:56;2.80;;;2.50;;
2476;SDS011;1249;51.270;6.756;2023-04-19T10:28:23;9.40;;;2.70;;
2476;SDS011;1249;51.270;6.756;2023-04-19T10:30:57;2.23;;;1.70;;
2476;SDS011;1249;51.270;6.756;2023-04-19T10:33:28;2.73;;;2.53;;
2476;SDS011;1249;51.270;6.756;2023-04-19T10:35:58;2.40;;;2.20;;
2476;SDS011;1249;51.270;6.756;2023-04-19T10:38:57;2.20;;;1.80;;
2476;SDS011;1249;51.270;6.756;2023-04-19T10:41:19;4.10;;;2.77;;
2476;SDS011;1249;51.270;6.756;2023-04-19T10:48:49;2.00;;;1.80;;
2476;SDS011;1249;51.270;6.756;2023-04-19T10:53:53;5.83;;;2.10;;
2476;SDS011;1249;51.270;6.756;2023-04-19T10:56:21;2.73;;;2.23;;
2476;SDS011;1249;51.270;6.756;2023-04-19T10:59:10;3.30;;;2.97;;
2476;SDS011;1249;51.270;6.756;2023-04-19T11:04:17;4.23;;;2.57;;
2476;SDS011;1249;51.270;6.756;2023-04-19T11:06:56;4.27;;;3.73;;
2476;SDS011;1249;51.270;6.756;2023-04-19T11:09:35;7.43;;;2.90;;
2476;SDS011;1249;51.270;6.756;2023-04-19T11:12:04;4.00;;;3.43;;
2476;SDS011;1249;51.270;6.756;2023-04-19T11:14:36;2.47;;;2.27;;
2476;SDS011;1249;51.270;6.756;2023-04-19T11:17:14;8.63;;;2.80;;
2476;SDS011;1249;51.270;6.756;2023-04-19T11:22:32;2.37;;;2.17;;
2476;SDS011;1249;51.270;6.756;2023-04-19T11:25:18;3.60;;;2.83;;
2476;SDS011;1249;51.270;6.756;2023-04-19T11:27:47;5.43;;;2.47;;
2476;SDS011;1249;51.270;6.756;2023-04-19T11:30:15;5.77;;;3.50;;
2476;SDS011;1249;51.270;6.756;2023-04-19T11:32:47;2.50;;;2.30;;
2476;SDS011;1249;51.270;6.756;2023-04-19T11:35:14;2.27;;;2.17;;
2476;SDS011;1249;51.270;6.756;2023-04-19T11:37:43;3.50;;;2.73;;
2476;SDS011;1249;51.270;6.756;2023-04-19T11:40:13;2.67;;;2.30;;
2476;SDS011;1249;51.270;6.756;2023-04-19T11:42:40;2.33;;;2.13;;
2476;SDS011;1249;51.270;6.756;2023-04-19T11:45:06;2.27;;;2.07;;
2476;SDS011;1249;51.270;6.756;2023-04-19T11:47:34;4.63;;;3.10;;
2476;SDS011;1249;51.270;6.756;2023-04-19T11:50:29;2.60;;;2.40;;
2476;SDS011;1249;51.270;6.756;2023-04-19T11:55:37;4.90;;;3.17;;
2476;SDS011;1249;51.270;6.756;2023-04-19T11:58:06;5.23;;;2.47;;
2476;SDS011;1249;51.270;6.756;2023-04-19T12:00:33;4.17;;;3.20;;
2476;SDS011;1249;51.270;6.756;2023-04-19T12:02:59;4.30;;;3.90;;
2476;SDS011;1249;51.270;6.756;2023-04-19T12:05:25;6.10;;;3.03;;
2476;SDS011;1249;51.270;6.756;2023-04-19T12:10:27;3.10;;;2.70;;
2476;SDS011;1249;51.270;6.756;2023-04-19T12:12:53;6.37;;;3.67;;
2476;SDS011;1249;51.270;6.756;2023-04-19T12:15:18;1.60;;;1.50;;
2476;SDS011;1249;51.270;6.756;2023-04-19T12:17:54;3.23;;;2.93;;
2476;SDS011;1249;51.270;6.756;2023-04-19T12:20:34;6.20;;;4.23;;
2476;SDS011;1249;51.270;6.756;2023-04-19T12:23:01;4.00;;;2.90;;
2476;SDS011;1249;51.270;6.756;2023-04-19T12:25:31;3.70;;;3.40;;
2476;SDS011;1249;51.270;6.756;2023-04-19T12:28:02;3.37;;;3.17;;
2476;SDS011;1249;51.270;6.756;2023-04-19T12:30:28;3.80;;;3.50;;
2476;SDS011;1249;51.270;6.756;2023-04-19T12:32:53;4.10;;;3.70;;
2476;SDS011;1249;51.270;6.756;2023-04-19T12:35:25;4.70;;;2.93;;
2476;SDS011;1249;51.270;6.756;2023-04-19T12:37:52;5.20;;;3.37;;
2476;SDS011;1249;51.270;6.756;2023-04-19T12:40:19;3.27;;;3.03;;
2476;SDS011;1249;51.270;6.756;2023-04-19T12:42:45;6.33;;;2.97;;
2476;SDS011;1249;51.270;6.756;2023-04-19T12:45:11;3.83;;;3.10;;
2476;SDS011;1249;51.270;6.756;2023-04-19T12:47:37;3.40;;;3.10;;
2476;SDS011;1249;51.270;6.756;2023-04-19T12:50:04;3.87;;;3.53;;
2476;SDS011;1249;51.270;6.756;2023-04-19T12:52:30;5.93;;;3.40;;
2476;SDS011;1249;51.270;6.756;2023-04-19T12:54:56;4.27;;;3.30;;
2476;SDS011;1249;51.270;6.756;2023-04-19T12:57:21;4.27;;;3.57;;
2476;SDS011;1249;51.270;6.756;2023-04-19T12:59:47;6.17;;;4.07;;
2476;SDS011;1249;51.270;6.756;2023-04-19T13:02:12;4.30;;;3.90;;
2476;SDS011;1249;51.270;6.756;2023-04-19T13:04:38;8.03;;;6.73;;
2476;SDS011;1249;51.270;6.756;2023-04-19T13:07:03;7.60;;;4.67;;
2476;SDS011;1249;51.270;6.756;2023-04-19T13:09:29;4.73;;;4.07;;
2476;SDS011;1249;51.270;6.756;2023-04-19T13:11:54;5.73;;;4.07;;
2476;SDS011;1249;51.270;6.756;2023-04-19T13:14:20;6.37;;;4.80;;
2476;SDS011;1249;51.270;6.756;2023-04-19T13:16:46;4.87;;;4.10;;
2476;SDS011;1249;51.270;6.756;2023-04-19T13:19:11;6.03;;;5.50;;
2476;SDS011;1249;51.270;6.756;2023-04-19T13:21:37;7.93;;;4.50;;
2476;SDS011;1249;51.270;6.756;2023-04-19T13:24:02;4.70;;;4.03;;
2476;SDS011;1249;51.270;6.756;2023-04-19T13:26:28;6.70;;;4.43;;
2476;SDS011;1249;51.270;6.756;2023-04-19T13:28:53;14.47;;;4.77;;
2476;SDS011;1249;51.270;6.756;2023-04-19T13:31:20;4.63;;;4.33;;
2476;SDS011;1249;51.270;6.756;2023-04-19T13:33:45;5.03;;;4.53;;
2476;SDS011;1249;51.270;6.756;2023-04-19T13:36:11;5.20;;;4.70;;
2476;SDS011;1249;51.270;6.756;2023-04-19T13:38:37;7.67;;;4.53;;
2476;SDS011;1249;51.270;6.756;2023-04-19T13:41:02;5.70;;;4.10;;
2476;SDS011;1249;51.270;6.756;2023-04-19T13:43:28;10.93;;;4.70;;
2476;SDS011;1249;51.270;6.756;2023-04-19T13:45:54;5.27;;;4.50;;
2476;SDS011;1249;51.270;6.756;2023-04-19T13:48:20;6.77;;;4.60;;
2476;SDS011;1249;51.270;6.756;2023-04-19T13:50:45;4.40;;;4.00;;
2476;SDS011;1249;51.270;6.756;2023-04-19T13:53:11;4.40;;;4.00;;
2476;SDS011;1249;51.270;6.756;2023-04-19T13:55:37;6.37;;;5.67;;
2476;SDS011;1249;51.270;6.756;2023-04-19T13:58:02;4.37;;;4.07;;
2476;SDS011;1249;51.270;6.756;2023-04-19T14:00:28;5.57;;;5.07;;
2476;SDS011;1249;51.270;6.756;2023-04-19T14:02:53;5.97;;;5.33;;
2476;SDS011;1249;51.270;6.756;2023-04-19T14:05:20;5.27;;;4.40;;
2476;SDS011;1249;51.270;6.756;2023-04-19T14:07:46;5.43;;;4.93;;
2476;SDS011;1249;51.270;6.756;2023-04-19T14:10:11;4.17;;;3.87;;
2476;SDS011;1249;51.270;6.756;2023-04-19T14:12:37;4.73;;;4.30;;
2476;SDS011;1249;51.270;6.756;2023-04-19T14:15:03;6.00;;;4.83;;
2476;SDS011;1249;51.270;6.756;2023-04-19T14:17:28;5.57;;;5.10;;
2476;SDS011;1249;51.270;6.756;2023-04-19T14:19:54;7.43;;;4.53;;
2476;SDS011;1249;51.270;6.756;2023-04-19T14:22:20;4.83;;;4.30;;
2476;SDS011;1249;51.270;6.756;2023-04-19T14:24:46;6.33;;;4.70;;
2476;SDS011;1249;51.270;6.756;2023-04-19T14:27:11;6.07;;;4.90;;
2476;SDS011;1249;51.270;6.756;2023-04-19T14:29:37;4.77;;;4.37;;
2476;SDS011;1249;51.270;6.756;2023-04-19T14:32:03;4.67;;;4.27;;
2476;SDS011;1249;51.270;6.756;2023-04-19T14:34:29;5.03;;;4.30;;
2476;SDS011;1249;51.270;6.756;2023-04-19T14:36:54;4.63;;;4.23;;
2476;SDS011;1249;51.270;6.756;2023-04-19T14:39:20;7.50;;;4.80;;
2476;SDS011;1249;51.270;6.756;2023-04-19T14:41:46;14.83;;;11.83;;
2476;SDS011;1249;51.270;6.756;2023-04-19T14:44:11;10.27;;;9.17;;
2476;SDS011;1249;51.270;6.756;2023-04-19T14:46:37;12.03;;;8.33;;
2476;SDS011;1249;51.270;6.756;2023-04-19T14:49:02;4.30;;;4.00;;
2476;SDS011;1249;51.270;6.756;2023-04-19T14:51:29;4.53;;;4.13;;
2476;SDS011;1249;51.270;6.756;2023-04-19T14:53:56;6.60;;;5.87;;
2476;SDS011;1249;51.270;6.756;2023-04-19T14:56:22;5.03;;;4.63;;
2476;SDS011;1249;51.270;6.756;2023-04-19T14:58:48;13.50;;;9.87;;
2476;SDS011;1249;51.270;6.756;2023-04-19T15:01:13;5.10;;;4.63;;
2476;SDS011;1249;51.270;6.756;2023-04-19T15:03:39;9.30;;;7.43;;
2476;SDS011;1249;51.270;6.756;2023-04-19T15:06:06;7.20;;;6.17;;
2476;SDS011;1249;51.270;6.756;2023-04-19T15:08:31;5.40;;;4.73;;
2476;SDS011;1249;51.270;6.756;2023-04-19T15:10:57;9.47;;;8.53;;
2476;SDS011;1249;51.270;6.756;2023-04-19T15:13:22;12.20;;;6.80;;
2476;SDS011;1249;51.270;6.756;2023-04-19T15:15:48;6.03;;;5.43;;
2476;SDS011;1249;51.270;6.756;2023-04-19T15:18:14;12.63;;;8.53;;
2476;SDS011;1249;51.270;6.756;2023-04-19T15:20:40;7.53;;;4.80;;
2476;SDS011;1249;51.270;6.756;2023-04-19T15:23:06;3.70;;;3.20;;
2476;SDS011;1249;51.270;6.756;2023-04-19T15:25:32;14.23;;;9.47;;
2476;SDS011;1249;51.270;6.756;2023-04-19T15:27:58;5.80;;;5.20;;